Terminal Aerodrome Forecast
Issued by NWS

Home | Current Version | Previous Version | Text Only | Print | Product List | Glossary On
Versions: 1 2 3 4 5 6 7 8 9 10 11 12 13 14 15 16 17 18 19 20 21 22 23 24 25 26 27 28 29
000
FTUS46 KOTX 172339
TAFSFF
TAF
KSFF 172339Z 1800/1824 VRB03KT P6SM -RA BKN040 OVC060
     FM180300 00000KT P6SM -RA OVC040
     FM180700 00000KT 6SM -RA BR BKN024 OVC035
     FM181100 20003KT 4SM -RA SCT007 OVC012
     FM181900 19003KT P6SM BKN020 OVC030=

USA.gov is the U.S. government's official web portal to all federal, state and local government web resources and services.